sensor_id;sensor_type;location;lat;lon;timestamp;temperature;humidity
4727;DHT22;2377;51.734;8.950;2024-02-26T00:00:06;4.30;1.00
4727;DHT22;2377;51.734;8.950;2024-02-26T00:02:36;4.30;1.00
4727;DHT22;2377;51.734;8.950;2024-02-26T00:05:06;4.30;1.00
4727;DHT22;2377;51.734;8.950;2024-02-26T00:07:34;4.20;1.00
4727;DHT22;2377;51.734;8.950;2024-02-26T00:10:06;4.20;1.00
4727;DHT22;2377;51.734;8.950;2024-02-26T00:12:34;4.30;1.00
4727;DHT22;2377;51.734;8.950;2024-02-26T00:15:02;4.30;1.00
4727;DHT22;2377;51.734;8.950;2024-02-26T00:17:30;4.20;1.00
4727;DHT22;2377;51.734;8.950;2024-02-26T00:19:57;4.20;1.00
4727;DHT22;2377;51.734;8.950;2024-02-26T00:22:26;4.20;1.00
4727;DHT22;2377;51.734;8.950;2024-02-26T00:24:53;4.20;1.00
4727;DHT22;2377;51.734;8.950;2024-02-26T00:27:20;4.30;1.00
4727;DHT22;2377;51.734;8.950;2024-02-26T00:29:47;4.30;1.00
4727;DHT22;2377;51.734;8.950;2024-02-26T00:32:16;4.30;1.00
4727;DHT22;2377;51.734;8.950;2024-02-26T00:34:44;4.30;1.00
4727;DHT22;2377;51.734;8.950;2024-02-26T00:37:11;4.30;1.00
4727;DHT22;2377;51.734;8.950;2024-02-26T00:39:38;4.30;1.00
4727;DHT22;2377;51.734;8.950;2024-02-26T00:42:05;4.30;1.00
4727;DHT22;2377;51.734;8.950;2024-02-26T00:44:33;4.30;1.00
4727;DHT22;2377;51.734;8.950;2024-02-26T00:47:02;4.30;1.00
4727;DHT22;2377;51.734;8.950;2024-02-26T00:49:30;4.30;1.00
4727;DHT22;2377;51.734;8.950;2024-02-26T00:51:58;4.30;1.00
4727;DHT22;2377;51.734;8.950;2024-02-26T00:54:26;4.30;1.00
4727;DHT22;2377;51.734;8.950;2024-02-26T00:56:53;4.30;1.00
4727;DHT22;2377;51.734;8.950;2024-02-26T00:59:20;4.30;1.00
4727;DHT22;2377;51.734;8.950;2024-02-26T01:01:47;4.30;1.00
4727;DHT22;2377;51.734;8.950;2024-02-26T01:04:14;4.30;1.00
4727;DHT22;2377;51.734;8.950;2024-02-26T01:06:43;4.30;1.00
4727;DHT22;2377;51.734;8.950;2024-02-26T01:09:11;4.30;1.00
4727;DHT22;2377;51.734;8.950;2024-02-26T01:11:39;4.30;1.00
4727;DHT22;2377;51.734;8.950;2024-02-26T01:14:06;4.30;1.00
4727;DHT22;2377;51.734;8.950;2024-02-26T01:16:33;4.30;1.00
4727;DHT22;2377;51.734;8.950;2024-02-26T01:19:02;4.30;1.00
4727;DHT22;2377;51.734;8.950;2024-02-26T01:21:29;4.30;1.00
4727;DHT22;2377;51.734;8.950;2024-02-26T01:23:58;4.40;1.00
4727;DHT22;2377;51.734;8.950;2024-02-26T01:26:25;4.40;1.00
4727;DHT22;2377;51.734;8.950;2024-02-26T01:28:52;4.50;1.00
4727;DHT22;2377;51.734;8.950;2024-02-26T01:31:20;4.50;1.00
4727;DHT22;2377;51.734;8.950;2024-02-26T01:33:47;4.50;1.00
4727;DHT22;2377;51.734;8.950;2024-02-26T01:36:14;4.50;1.00
4727;DHT22;2377;51.734;8.950;2024-02-26T01:38:41;4.50;1.00
4727;DHT22;2377;51.734;8.950;2024-02-26T01:41:10;4.60;1.00
4727;DHT22;2377;51.734;8.950;2024-02-26T01:43:37;4.60;1.00
4727;DHT22;2377;51.734;8.950;2024-02-26T01:46:05;4.60;1.00
4727;DHT22;2377;51.734;8.950;2024-02-26T01:48:36;4.60;1.00
4727;DHT22;2377;51.734;8.950;2024-02-26T01:51:03;4.60;1.00
4727;DHT22;2377;51.734;8.950;2024-02-26T01:53:31;4.60;1.00
4727;DHT22;2377;51.734;8.950;2024-02-26T01:55:58;4.70;1.00
4727;DHT22;2377;51.734;8.950;2024-02-26T01:58:27;4.70;1.00
4727;DHT22;2377;51.734;8.950;2024-02-26T02:00:56;4.80;1.00
4727;DHT22;2377;51.734;8.950;2024-02-26T02:03:23;4.80;1.00
4727;DHT22;2377;51.734;8.950;2024-02-26T02:05:51;4.80;1.00
4727;DHT22;2377;51.734;8.950;2024-02-26T02:08:18;4.80;1.00
4727;DHT22;2377;51.734;8.950;2024-02-26T02:10:45;4.70;1.00
4727;DHT22;2377;51.734;8.950;2024-02-26T02:13:14;4.70;1.00
4727;DHT22;2377;51.734;8.950;2024-02-26T02:15:43;4.70;1.00
4727;DHT22;2377;51.734;8.950;2024-02-26T02:18:10;4.70;1.00
4727;DHT22;2377;51.734;8.950;2024-02-26T02:20:38;4.60;1.00
4727;DHT22;2377;51.734;8.950;2024-02-26T02:23:05;4.70;1.00
4727;DHT22;2377;51.734;8.950;2024-02-26T02:25:37;4.70;1.00
4727;DHT22;2377;51.734;8.950;2024-02-26T02:28:04;4.60;1.00
4727;DHT22;2377;51.734;8.950;2024-02-26T02:30:34;4.60;1.00
4727;DHT22;2377;51.734;8.950;2024-02-26T02:33:01;4.60;1.00
4727;DHT22;2377;51.734;8.950;2024-02-26T02:35:28;4.70;1.00
4727;DHT22;2377;51.734;8.950;2024-02-26T02:38:00;4.60;1.00
4727;DHT22;2377;51.734;8.950;2024-02-26T02:40:27;4.60;1.00
4727;DHT22;2377;51.734;8.950;2024-02-26T02:42:54;4.60;1.00
4727;DHT22;2377;51.734;8.950;2024-02-26T02:45:21;4.60;1.00
4727;DHT22;2377;51.734;8.950;2024-02-26T02:47:48;4.60;1.00
4727;DHT22;2377;51.734;8.950;2024-02-26T02:50:16;4.70;1.00
4727;DHT22;2377;51.734;8.950;2024-02-26T02:52:43;4.70;1.00
4727;DHT22;2377;51.734;8.950;2024-02-26T02:55:12;4.70;1.00
4727;DHT22;2377;51.734;8.950;2024-02-26T02:57:39;4.80;1.00
4727;DHT22;2377;51.734;8.950;2024-02-26T03:00:09;4.80;1.00
4727;DHT22;2377;51.734;8.950;2024-02-26T03:02:38;4.80;1.00
4727;DHT22;2377;51.734;8.950;2024-02-26T03:05:06;4.80;99.90
4727;DHT22;2377;51.734;8.950;2024-02-26T03:07:36;4.80;1.00
4727;DHT22;2377;51.734;8.950;2024-02-26T03:10:03;4.80;99.90
4727;DHT22;2377;51.734;8.950;2024-02-26T03:12:33;4.80;1.00
4727;DHT22;2377;51.734;8.950;2024-02-26T03:15:01;4.80;99.90
4727;DHT22;2377;51.734;8.950;2024-02-26T03:17:30;4.80;99.90
4727;DHT22;2377;51.734;8.950;2024-02-26T03:19:57;4.90;99.90
4727;DHT22;2377;51.734;8.950;2024-02-26T03:22:25;4.90;99.90
4727;DHT22;2377;51.734;8.950;2024-02-26T03:24:52;4.90;99.90
4727;DHT22;2377;51.734;8.950;2024-02-26T03:27:19;4.90;99.90
4727;DHT22;2377;51.734;8.950;2024-02-26T03:29:47;4.90;99.90
4727;DHT22;2377;51.734;8.950;2024-02-26T03:32:15;4.90;99.90
4727;DHT22;2377;51.734;8.950;2024-02-26T03:34:45;4.90;99.90
4727;DHT22;2377;51.734;8.950;2024-02-26T03:37:12;4.90;1.00
4727;DHT22;2377;51.734;8.950;2024-02-26T03:39:39;4.90;1.00
4727;DHT22;2377;51.734;8.950;2024-02-26T03:42:06;4.90;1.00
4727;DHT22;2377;51.734;8.950;2024-02-26T03:44:33;4.90;1.00
4727;DHT22;2377;51.734;8.950;2024-02-26T03:47:01;4.90;1.00
4727;DHT22;2377;51.734;8.950;2024-02-26T03:49:29;4.90;1.00
4727;DHT22;2377;51.734;8.950;2024-02-26T03:51:57;4.90;1.00
4727;DHT22;2377;51.734;8.950;2024-02-26T03:54:24;4.90;1.00
4727;DHT22;2377;51.734;8.950;2024-02-26T03:56:51;4.90;1.00
4727;DHT22;2377;51.734;8.950;2024-02-26T03:59:18;5.00;1.00
4727;DHT22;2377;51.734;8.950;2024-02-26T04:01:47;5.00;1.00
4727;DHT22;2377;51.734;8.950;2024-02-26T04:04:16;5.00;1.00
4727;DHT22;2377;51.734;8.950;2024-02-26T04:06:44;5.00;1.00
4727;DHT22;2377;51.734;8.950;2024-02-26T04:09:13;5.00;1.00
4727;DHT22;2377;51.734;8.950;2024-02-26T04:11:40;5.00;1.00
4727;DHT22;2377;51.734;8.950;2024-02-26T04:14:09;5.00;1.00
4727;DHT22;2377;51.734;8.950;2024-02-26T04:16:37;5.00;1.00
4727;DHT22;2377;51.734;8.950;2024-02-26T04:19:05;5.00;1.00
4727;DHT22;2377;51.734;8.950;2024-02-26T04:21:33;5.00;1.00
4727;DHT22;2377;51.734;8.950;2024-02-26T04:24:01;5.10;99.90
4727;DHT22;2377;51.734;8.950;2024-02-26T04:26:30;5.10;99.90
4727;DHT22;2377;51.734;8.950;2024-02-26T04:28:57;5.10;99.90
4727;DHT22;2377;51.734;8.950;2024-02-26T04:31:24;5.10;99.90
4727;DHT22;2377;51.734;8.950;2024-02-26T04:33:51;5.20;99.90
4727;DHT22;2377;51.734;8.950;2024-02-26T04:36:19;5.20;99.90
4727;DHT22;2377;51.734;8.950;2024-02-26T04:38:47;5.20;99.90
4727;DHT22;2377;51.734;8.950;2024-02-26T04:41:18;5.30;99.90
4727;DHT22;2377;51.734;8.950;2024-02-26T04:43:45;5.30;99.90
4727;DHT22;2377;51.734;8.950;2024-02-26T04:46:13;5.30;99.90
4727;DHT22;2377;51.734;8.950;2024-02-26T04:48:40;5.30;99.90
4727;DHT22;2377;51.734;8.950;2024-02-26T04:51:08;5.30;99.90
4727;DHT22;2377;51.734;8.950;2024-02-26T04:53:35;5.40;99.90
4727;DHT22;2377;51.734;8.950;2024-02-26T04:56:04;5.40;99.90
4727;DHT22;2377;51.734;8.950;2024-02-26T04:58:34;5.40;99.90
4727;DHT22;2377;51.734;8.950;2024-02-26T05:01:02;5.40;99.90
4727;DHT22;2377;51.734;8.950;2024-02-26T05:03:30;5.40;99.90
4727;DHT22;2377;51.734;8.950;2024-02-26T05:06:01;5.50;99.90
4727;DHT22;2377;51.734;8.950;2024-02-26T05:08:28;5.50;99.90
4727;DHT22;2377;51.734;8.950;2024-02-26T05:10:56;5.50;99.90
4727;DHT22;2377;51.734;8.950;2024-02-26T05:13:24;5.40;99.90
4727;DHT22;2377;51.734;8.950;2024-02-26T05:15:52;5.50;99.90
4727;DHT22;2377;51.734;8.950;2024-02-26T05:18:21;5.40;99.90
4727;DHT22;2377;51.734;8.950;2024-02-26T05:20:50;5.40;99.90
4727;DHT22;2377;51.734;8.950;2024-02-26T05:23:17;5.40;99.90
4727;DHT22;2377;51.734;8.950;2024-02-26T05:25:44;5.40;99.90
4727;DHT22;2377;51.734;8.950;2024-02-26T05:28:13;5.50;99.90
4727;DHT22;2377;51.734;8.950;2024-02-26T05:30:42;5.40;99.90
4727;DHT22;2377;51.734;8.950;2024-02-26T05:33:09;5.40;99.90
4727;DHT22;2377;51.734;8.950;2024-02-26T05:35:37;5.40;99.90
4727;DHT22;2377;51.734;8.950;2024-02-26T05:38:06;5.40;99.90
4727;DHT22;2377;51.734;8.950;2024-02-26T05:40:33;5.40;99.90
4727;DHT22;2377;51.734;8.950;2024-02-26T05:43:04;5.40;99.90
4727;DHT22;2377;51.734;8.950;2024-02-26T05:45:32;5.40;99.90
4727;DHT22;2377;51.734;8.950;2024-02-26T05:48:05;5.30;99.90
4727;DHT22;2377;51.734;8.950;2024-02-26T05:50:32;5.30;99.90
4727;DHT22;2377;51.734;8.950;2024-02-26T05:53:00;5.30;99.90
4727;DHT22;2377;51.734;8.950;2024-02-26T05:55:28;5.30;99.90
4727;DHT22;2377;51.734;8.950;2024-02-26T05:57:55;5.30;99.90
4727;DHT22;2377;51.734;8.950;2024-02-26T06:00:23;5.20;99.90
4727;DHT22;2377;51.734;8.950;2024-02-26T06:02:51;5.20;99.90
4727;DHT22;2377;51.734;8.950;2024-02-26T06:05:21;5.30;99.90
4727;DHT22;2377;51.734;8.950;2024-02-26T06:07:48;5.30;99.90
4727;DHT22;2377;51.734;8.950;2024-02-26T06:10:16;5.30;99.90
4727;DHT22;2377;51.734;8.950;2024-02-26T06:12:46;5.30;99.90
4727;DHT22;2377;51.734;8.950;2024-02-26T06:15:14;5.30;99.90
4727;DHT22;2377;51.734;8.950;2024-02-26T06:17:42;5.20;99.90
4727;DHT22;2377;51.734;8.950;2024-02-26T06:20:11;5.20;99.90
4727;DHT22;2377;51.734;8.950;2024-02-26T06:22:41;5.20;99.90
4727;DHT22;2377;51.734;8.950;2024-02-26T06:25:08;5.10;99.90
4727;DHT22;2377;51.734;8.950;2024-02-26T06:27:36;5.10;99.90
4727;DHT22;2377;51.734;8.950;2024-02-26T06:30:07;5.10;99.90
4727;DHT22;2377;51.734;8.950;2024-02-26T06:32:38;5.10;99.90
4727;DHT22;2377;51.734;8.950;2024-02-26T06:35:06;5.10;99.90
4727;DHT22;2377;51.734;8.950;2024-02-26T06:37:35;5.10;99.90
4727;DHT22;2377;51.734;8.950;2024-02-26T06:40:06;5.10;99.90
4727;DHT22;2377;51.734;8.950;2024-02-26T06:42:36;5.00;99.90
4727;DHT22;2377;51.734;8.950;2024-02-26T06:45:05;5.10;1.00
4727;DHT22;2377;51.734;8.950;2024-02-26T06:47:33;5.00;99.90
4727;DHT22;2377;51.734;8.950;2024-02-26T06:50:00;5.00;99.90
4727;DHT22;2377;51.734;8.950;2024-02-26T06:52:27;5.00;99.90
4727;DHT22;2377;51.734;8.950;2024-02-26T06:54:55;5.00;99.90
4727;DHT22;2377;51.734;8.950;2024-02-26T06:57:24;5.00;99.90
4727;DHT22;2377;51.734;8.950;2024-02-26T06:59:51;5.00;99.90
4727;DHT22;2377;51.734;8.950;2024-02-26T07:02:18;5.00;99.90
4727;DHT22;2377;51.734;8.950;2024-02-26T07:04:45;5.00;1.00
4727;DHT22;2377;51.734;8.950;2024-02-26T07:07:12;5.00;1.00
4727;DHT22;2377;51.734;8.950;2024-02-26T07:09:44;5.00;1.00
4727;DHT22;2377;51.734;8.950;2024-02-26T07:12:12;5.00;1.00
4727;DHT22;2377;51.734;8.950;2024-02-26T07:14:41;5.00;1.00
4727;DHT22;2377;51.734;8.950;2024-02-26T07:17:08;5.00;1.00
4727;DHT22;2377;51.734;8.950;2024-02-26T07:19:36;5.00;1.00
4727;DHT22;2377;51.734;8.950;2024-02-26T07:22:03;5.00;1.00
4727;DHT22;2377;51.734;8.950;2024-02-26T07:24:31;5.00;1.00
4727;DHT22;2377;51.734;8.950;2024-02-26T07:27:00;5.00;1.00
4727;DHT22;2377;51.734;8.950;2024-02-26T07:29:27;5.00;1.00
4727;DHT22;2377;51.734;8.950;2024-02-26T07:31:55;5.00;1.00
4727;DHT22;2377;51.734;8.950;2024-02-26T07:34:22;5.00;1.00
4727;DHT22;2377;51.734;8.950;2024-02-26T07:36:54;5.00;1.00
4727;DHT22;2377;51.734;8.950;2024-02-26T07:39:21;5.00;1.00
4727;DHT22;2377;51.734;8.950;2024-02-26T07:41:49;5.00;1.00
4727;DHT22;2377;51.734;8.950;2024-02-26T07:44:18;5.10;1.00
4727;DHT22;2377;51.734;8.950;2024-02-26T07:46:48;5.10;1.00
4727;DHT22;2377;51.734;8.950;2024-02-26T07:49:17;5.10;1.00
4727;DHT22;2377;51.734;8.950;2024-02-26T07:51:46;5.10;1.00
4727;DHT22;2377;51.734;8.950;2024-02-26T07:54:14;5.20;1.00
4727;DHT22;2377;51.734;8.950;2024-02-26T07:56:41;5.30;1.00
4727;DHT22;2377;51.734;8.950;2024-02-26T07:59:08;5.30;1.00
4727;DHT22;2377;51.734;8.950;2024-02-26T08:01:36;5.30;1.00
4727;DHT22;2377;51.734;8.950;2024-02-26T08:04:04;5.40;1.00
4727;DHT22;2377;51.734;8.950;2024-02-26T08:06:33;5.50;1.00
4727;DHT22;2377;51.734;8.950;2024-02-26T08:09:00;5.50;1.00
4727;DHT22;2377;51.734;8.950;2024-02-26T08:11:27;5.60;1.00
4727;DHT22;2377;51.734;8.950;2024-02-26T08:13:56;5.60;1.00
4727;DHT22;2377;51.734;8.950;2024-02-26T08:16:24;5.60;1.00
4727;DHT22;2377;51.734;8.950;2024-02-26T08:18:51;5.70;1.00
4727;DHT22;2377;51.734;8.950;2024-02-26T08:21:19;5.70;1.00
4727;DHT22;2377;51.734;8.950;2024-02-26T08:23:47;5.80;1.00
4727;DHT22;2377;51.734;8.950;2024-02-26T08:26:15;5.80;1.00
4727;DHT22;2377;51.734;8.950;2024-02-26T08:28:42;5.90;1.00
4727;DHT22;2377;51.734;8.950;2024-02-26T08:31:10;5.90;1.00
4727;DHT22;2377;51.734;8.950;2024-02-26T08:33:37;6.00;99.90
4727;DHT22;2377;51.734;8.950;2024-02-26T08:36:05;6.00;1.00
4727;DHT22;2377;51.734;8.950;2024-02-26T08:38:33;6.00;1.00
4727;DHT22;2377;51.734;8.950;2024-02-26T08:41:03;6.10;1.00
4727;DHT22;2377;51.734;8.950;2024-02-26T08:43:32;6.10;1.00
4727;DHT22;2377;51.734;8.950;2024-02-26T08:46:01;6.20;99.90
4727;DHT22;2377;51.734;8.950;2024-02-26T08:48:28;6.30;99.90
4727;DHT22;2377;51.734;8.950;2024-02-26T08:50:56;6.30;99.90
4727;DHT22;2377;51.734;8.950;2024-02-26T08:53:23;6.40;99.90
4727;DHT22;2377;51.734;8.950;2024-02-26T08:55:52;6.50;99.90
4727;DHT22;2377;51.734;8.950;2024-02-26T08:58:21;6.50;99.90
4727;DHT22;2377;51.734;8.950;2024-02-26T09:00:50;6.60;99.90
4727;DHT22;2377;51.734;8.950;2024-02-26T09:03:18;6.60;99.90
4727;DHT22;2377;51.734;8.950;2024-02-26T09:05:45;6.80;99.90
4727;DHT22;2377;51.734;8.950;2024-02-26T09:08:13;6.90;99.90
4727;DHT22;2377;51.734;8.950;2024-02-26T09:10:40;7.00;99.90
4727;DHT22;2377;51.734;8.950;2024-02-26T09:13:08;7.10;99.90
4727;DHT22;2377;51.734;8.950;2024-02-26T09:15:37;7.30;99.90
4727;DHT22;2377;51.734;8.950;2024-02-26T09:18:04;7.50;99.90
4727;DHT22;2377;51.734;8.950;2024-02-26T09:20:36;7.60;99.90
4727;DHT22;2377;51.734;8.950;2024-02-26T09:23:04;7.60;99.90
4727;DHT22;2377;51.734;8.950;2024-02-26T09:25:32;7.70;99.90
4727;DHT22;2377;51.734;8.950;2024-02-26T09:28:00;7.80;99.90
4727;DHT22;2377;51.734;8.950;2024-02-26T09:30:27;7.80;99.90
4727;DHT22;2377;51.734;8.950;2024-02-26T09:32:56;8.00;99.90
4727;DHT22;2377;51.734;8.950;2024-02-26T09:35:23;8.00;99.90
4727;DHT22;2377;51.734;8.950;2024-02-26T09:37:52;8.20;99.90
4727;DHT22;2377;51.734;8.950;2024-02-26T09:40:19;8.40;99.90
4727;DHT22;2377;51.734;8.950;2024-02-26T09:42:52;8.50;99.90
4727;DHT22;2377;51.734;8.950;2024-02-26T09:45:26;8.70;99.90
4727;DHT22;2377;51.734;8.950;2024-02-26T09:47:57;8.80;99.90
4727;DHT22;2377;51.734;8.950;2024-02-26T09:50:24;8.70;99.90
4727;DHT22;2377;51.734;8.950;2024-02-26T09:52:52;8.70;99.90
4727;DHT22;2377;51.734;8.950;2024-02-26T09:55:23;8.80;99.90
4727;DHT22;2377;51.734;8.950;2024-02-26T09:57:51;8.80;99.90
4727;DHT22;2377;51.734;8.950;2024-02-26T10:00:20;9.00;99.90
4727;DHT22;2377;51.734;8.950;2024-02-26T10:02:48;9.20;99.90
4727;DHT22;2377;51.734;8.950;2024-02-26T10:05:21;9.40;99.90
4727;DHT22;2377;51.734;8.950;2024-02-26T10:07:50;9.60;99.90
4727;DHT22;2377;51.734;8.950;2024-02-26T10:10:19;9.80;99.90
4727;DHT22;2377;51.734;8.950;2024-02-26T10:12:49;9.70;99.90
4727;DHT22;2377;51.734;8.950;2024-02-26T10:15:16;9.70;99.90
4727;DHT22;2377;51.734;8.950;2024-02-26T10:17:44;9.60;99.90
4727;DHT22;2377;51.734;8.950;2024-02-26T10:20:15;9.50;99.90
4727;DHT22;2377;51.734;8.950;2024-02-26T10:22:46;9.50;99.90
4727;DHT22;2377;51.734;8.950;2024-02-26T10:25:13;9.30;99.90
4727;DHT22;2377;51.734;8.950;2024-02-26T10:27:41;9.30;99.90
4727;DHT22;2377;51.734;8.950;2024-02-26T10:30:19;9.10;99.90
4727;DHT22;2377;51.734;8.950;2024-02-26T10:32:52;9.00;99.90
4727;DHT22;2377;51.734;8.950;2024-02-26T10:35:19;9.00;99.90
4727;DHT22;2377;51.734;8.950;2024-02-26T10:37:50;8.90;99.90
4727;DHT22;2377;51.734;8.950;2024-02-26T10:40:18;8.90;99.90
4727;DHT22;2377;51.734;8.950;2024-02-26T10:42:45;8.90;99.90
4727;DHT22;2377;51.734;8.950;2024-02-26T10:45:12;8.90;99.90
4727;DHT22;2377;51.734;8.950;2024-02-26T10:47:40;8.80;99.90
4727;DHT22;2377;51.734;8.950;2024-02-26T10:50:09;8.80;99.90
4727;DHT22;2377;51.734;8.950;2024-02-26T10:52:37;8.90;99.90
4727;DHT22;2377;51.734;8.950;2024-02-26T10:55:06;8.90;99.90
4727;DHT22;2377;51.734;8.950;2024-02-26T10:57:38;8.90;99.90
4727;DHT22;2377;51.734;8.950;2024-02-26T11:00:11;8.90;99.90
4727;DHT22;2377;51.734;8.950;2024-02-26T11:02:41;9.00;99.90
4727;DHT22;2377;51.734;8.950;2024-02-26T11:05:11;9.00;99.90
4727;DHT22;2377;51.734;8.950;2024-02-26T11:07:40;9.10;99.90
4727;DHT22;2377;51.734;8.950;2024-02-26T11:10:11;9.20;99.90
4727;DHT22;2377;51.734;8.950;2024-02-26T11:12:39;9.20;99.90
4727;DHT22;2377;51.734;8.950;2024-02-26T11:15:09;9.20;99.90
4727;DHT22;2377;51.734;8.950;2024-02-26T11:17:38;9.20;99.90
4727;DHT22;2377;51.734;8.950;2024-02-26T11:20:10;9.10;99.90
4727;DHT22;2377;51.734;8.950;2024-02-26T11:22:39;9.10;99.90
4727;DHT22;2377;51.734;8.950;2024-02-26T11:25:07;9.10;99.90
4727;DHT22;2377;51.734;8.950;2024-02-26T11:27:43;9.10;99.90
4727;DHT22;2377;51.734;8.950;2024-02-26T11:30:15;9.10;99.90
4727;DHT22;2377;51.734;8.950;2024-02-26T11:32:44;9.10;99.90
4727;DHT22;2377;51.734;8.950;2024-02-26T11:35:13;9.10;99.90
4727;DHT22;2377;51.734;8.950;2024-02-26T11:37:52;9.10;99.90
4727;DHT22;2377;51.734;8.950;2024-02-26T11:40:19;9.20;99.90
4727;DHT22;2377;51.734;8.950;2024-02-26T11:42:48;9.20;99.90
4727;DHT22;2377;51.734;8.950;2024-02-26T11:45:48;9.20;99.90
4727;DHT22;2377;51.734;8.950;2024-02-26T11:48:20;9.20;99.90
4727;DHT22;2377;51.734;8.950;2024-02-26T11:50:49;9.20;99.90
4727;DHT22;2377;51.734;8.950;2024-02-26T11:53:25;9.20;99.90
4727;DHT22;2377;51.734;8.950;2024-02-26T11:56:24;9.20;99.90
4727;DHT22;2377;51.734;8.950;2024-02-26T11:59:00;9.10;99.90
4727;DHT22;2377;51.734;8.950;2024-02-26T12:01:43;9.20;99.90
4727;DHT22;2377;51.734;8.950;2024-02-26T12:04:15;9.10;99.90
4727;DHT22;2377;51.734;8.950;2024-02-26T12:06:48;9.10;99.90
4727;DHT22;2377;51.734;8.950;2024-02-26T12:09:36;9.10;99.90
4727;DHT22;2377;51.734;8.950;2024-02-26T12:12:06;9.10;99.90
4727;DHT22;2377;51.734;8.950;2024-02-26T12:14:40;9.10;99.90
4727;DHT22;2377;51.734;8.950;2024-02-26T12:17:20;9.10;99.90
4727;DHT22;2377;51.734;8.950;2024-02-26T12:19:47;9.20;99.90
4727;DHT22;2377;51.734;8.950;2024-02-26T12:22:18;9.10;99.90
4727;DHT22;2377;51.734;8.950;2024-02-26T12:24:47;9.10;99.90
4727;DHT22;2377;51.734;8.950;2024-02-26T12:27:24;9.10;99.90
4727;DHT22;2377;51.734;8.950;2024-02-26T12:29:53;9.00;99.90
4727;DHT22;2377;51.734;8.950;2024-02-26T12:32:20;9.00;99.90
4727;DHT22;2377;51.734;8.950;2024-02-26T12:34:50;9.00;99.90
4727;DHT22;2377;51.734;8.950;2024-02-26T12:37:18;9.00;99.90
4727;DHT22;2377;51.734;8.950;2024-02-26T12:39:45;9.00;99.90
4727;DHT22;2377;51.734;8.950;2024-02-26T12:42:14;9.00;99.90
4727;DHT22;2377;51.734;8.950;2024-02-26T12:44:44;9.00;99.90
4727;DHT22;2377;51.734;8.950;2024-02-26T12:47:13;8.90;99.90
4727;DHT22;2377;51.734;8.950;2024-02-26T12:49:42;8.90;99.90
4727;DHT22;2377;51.734;8.950;2024-02-26T12:52:10;8.90;99.90
4727;DHT22;2377;51.734;8.950;2024-02-26T12:54:38;8.80;99.90
4727;DHT22;2377;51.734;8.950;2024-02-26T12:57:08;8.80;99.90
4727;DHT22;2377;51.734;8.950;2024-02-26T12:59:36;8.80;99.90
4727;DHT22;2377;51.734;8.950;2024-02-26T13:02:05;8.80;99.90
4727;DHT22;2377;51.734;8.950;2024-02-26T13:04:33;8.80;99.90
4727;DHT22;2377;51.734;8.950;2024-02-26T13:07:03;8.80;99.90
4727;DHT22;2377;51.734;8.950;2024-02-26T13:09:32;8.80;99.90
4727;DHT22;2377;51.734;8.950;2024-02-26T13:12:04;8.70;99.90
4727;DHT22;2377;51.734;8.950;2024-02-26T13:14:32;8.80;99.90
4727;DHT22;2377;51.734;8.950;2024-02-26T13:17:01;8.80;99.90
4727;DHT22;2377;51.734;8.950;2024-02-26T13:19:28;8.80;99.90
4727;DHT22;2377;51.734;8.950;2024-02-26T13:22:03;8.80;99.90
4727;DHT22;2377;51.734;8.950;2024-02-26T13:24:32;8.80;99.90
4727;DHT22;2377;51.734;8.950;2024-02-26T13:27:00;8.80;99.90
4727;DHT22;2377;51.734;8.950;2024-02-26T13:29:28;8.70;99.90
4727;DHT22;2377;51.734;8.950;2024-02-26T13:31:57;8.70;99.90
4727;DHT22;2377;51.734;8.950;2024-02-26T13:34:25;8.70;99.90
4727;DHT22;2377;51.734;8.950;2024-02-26T13:36:57;8.70;99.90
4727;DHT22;2377;51.734;8.950;2024-02-26T13:39:26;8.60;99.90
4727;DHT22;2377;51.734;8.950;2024-02-26T13:41:54;8.60;99.90
4727;DHT22;2377;51.734;8.950;2024-02-26T13:44:22;8.60;99.90
4727;DHT22;2377;51.734;8.950;2024-02-26T13:46:53;8.60;99.90
4727;DHT22;2377;51.734;8.950;2024-02-26T13:49:20;8.70;99.90
4727;DHT22;2377;51.734;8.950;2024-02-26T13:51:49;8.70;99.90
4727;DHT22;2377;51.734;8.950;2024-02-26T13:54:17;8.60;99.90
4727;DHT22;2377;51.734;8.950;2024-02-26T13:56:44;8.50;99.90
4727;DHT22;2377;51.734;8.950;2024-02-26T13:59:12;8.50;99.90
4727;DHT22;2377;51.734;8.950;2024-02-26T14:01:39;8.50;99.90
4727;DHT22;2377;51.734;8.950;2024-02-26T14:04:09;8.50;99.90
4727;DHT22;2377;51.734;8.950;2024-02-26T14:06:36;8.50;99.90
4727;DHT22;2377;51.734;8.950;2024-02-26T14:09:03;8.50;99.90
4727;DHT22;2377;51.734;8.950;2024-02-26T14:11:32;8.50;99.90
4727;DHT22;2377;51.734;8.950;2024-02-26T14:14:00;8.50;99.90
4727;DHT22;2377;51.734;8.950;2024-02-26T14:16:27;8.50;99.90
4727;DHT22;2377;51.734;8.950;2024-02-26T14:18:57;8.50;99.90
4727;DHT22;2377;51.734;8.950;2024-02-26T14:21:25;8.60;99.90
4727;DHT22;2377;51.734;8.950;2024-02-26T14:23:52;8.60;99.90
4727;DHT22;2377;51.734;8.950;2024-02-26T14:26:20;8.50;99.90
4727;DHT22;2377;51.734;8.950;2024-02-26T14:28:49;8.50;99.90
4727;DHT22;2377;51.734;8.950;2024-02-26T14:31:17;8.60;99.90
4727;DHT22;2377;51.734;8.950;2024-02-26T14:33:45;8.60;99.90
4727;DHT22;2377;51.734;8.950;2024-02-26T14:36:15;8.60;99.90
4727;DHT22;2377;51.734;8.950;2024-02-26T14:38:42;8.60;99.90
4727;DHT22;2377;51.734;8.950;2024-02-26T14:41:09;8.60;99.90
4727;DHT22;2377;51.734;8.950;2024-02-26T14:43:36;8.50;99.90
4727;DHT22;2377;51.734;8.950;2024-02-26T14:46:05;8.50;99.90
4727;DHT22;2377;51.734;8.950;2024-02-26T14:48:33;8.60;99.90
4727;DHT22;2377;51.734;8.950;2024-02-26T14:51:04;8.50;99.90
4727;DHT22;2377;51.734;8.950;2024-02-26T14:53:31;8.50;99.90
4727;DHT22;2377;51.734;8.950;2024-02-26T14:56:02;8.50;99.90
4727;DHT22;2377;51.734;8.950;2024-02-26T14:58:31;8.50;99.90
4727;DHT22;2377;51.734;8.950;2024-02-26T15:00:59;8.50;99.90
4727;DHT22;2377;51.734;8.950;2024-02-26T15:03:27;8.60;99.90
4727;DHT22;2377;51.734;8.950;2024-02-26T15:05:56;8.60;99.90
4727;DHT22;2377;51.734;8.950;2024-02-26T15:08:23;8.60;99.90
4727;DHT22;2377;51.734;8.950;2024-02-26T15:10:52;8.50;99.90
4727;DHT22;2377;51.734;8.950;2024-02-26T15:13:20;8.60;99.90
4727;DHT22;2377;51.734;8.950;2024-02-26T15:15:48;8.50;99.90
4727;DHT22;2377;51.734;8.950;2024-02-26T15:18:16;8.60;99.90
4727;DHT22;2377;51.734;8.950;2024-02-26T15:20:45;8.50;99.90
4727;DHT22;2377;51.734;8.950;2024-02-26T15:23:12;8.50;99.90
4727;DHT22;2377;51.734;8.950;2024-02-26T15:25:40;8.50;99.90
4727;DHT22;2377;51.734;8.950;2024-02-26T15:28:08;8.50;99.90
4727;DHT22;2377;51.734;8.950;2024-02-26T15:30:37;8.50;99.90
4727;DHT22;2377;51.734;8.950;2024-02-26T15:33:06;8.50;99.90
4727;DHT22;2377;51.734;8.950;2024-02-26T15:35:34;8.40;99.90
4727;DHT22;2377;51.734;8.950;2024-02-26T15:38:06;8.50;99.90
4727;DHT22;2377;51.734;8.950;2024-02-26T15:40:33;8.50;99.90
4727;DHT22;2377;51.734;8.950;2024-02-26T15:43:00;8.50;99.90
4727;DHT22;2377;51.734;8.950;2024-02-26T15:45:27;8.50;99.90
4727;DHT22;2377;51.734;8.950;2024-02-26T15:47:57;8.50;99.90
4727;DHT22;2377;51.734;8.950;2024-02-26T15:50:27;8.50;99.90
4727;DHT22;2377;51.734;8.950;2024-02-26T15:52:54;8.50;99.90
4727;DHT22;2377;51.734;8.950;2024-02-26T15:55:23;8.50;99.90
4727;DHT22;2377;51.734;8.950;2024-02-26T15:57:50;8.40;99.90
4727;DHT22;2377;51.734;8.950;2024-02-26T16:00:18;8.40;99.90
4727;DHT22;2377;51.734;8.950;2024-02-26T16:02:47;8.30;99.90
4727;DHT22;2377;51.734;8.950;2024-02-26T16:05:15;8.30;99.90
4727;DHT22;2377;51.734;8.950;2024-02-26T16:07:47;8.30;99.90
4727;DHT22;2377;51.734;8.950;2024-02-26T16:10:18;8.20;99.90
4727;DHT22;2377;51.734;8.950;2024-02-26T16:12:52;8.20;99.90
4727;DHT22;2377;51.734;8.950;2024-02-26T16:15:21;8.20;99.90
4727;DHT22;2377;51.734;8.950;2024-02-26T16:17:50;8.20;99.90
4727;DHT22;2377;51.734;8.950;2024-02-26T16:20:22;8.10;99.90
4727;DHT22;2377;51.734;8.950;2024-02-26T16:22:50;8.10;99.90
4727;DHT22;2377;51.734;8.950;2024-02-26T16:25:18;8.10;99.90
4727;DHT22;2377;51.734;8.950;2024-02-26T16:27:48;8.10;99.90
4727;DHT22;2377;51.734;8.950;2024-02-26T16:30:15;8.10;99.90
4727;DHT22;2377;51.734;8.950;2024-02-26T16:32:43;8.00;99.90